sensor_id;sensor_type;location;lat;lon;timestamp;temperature;humidity
16744;DHT22;71724;-33.900;151.182;2023-11-21T00:00:36;21.50;84.60
16744;DHT22;71724;-33.900;151.182;2023-11-21T00:03:04;21.60;84.30
16744;DHT22;71724;-33.900;151.182;2023-11-21T00:05:31;21.60;84.20
16744;DHT22;71724;-33.900;151.182;2023-11-21T00:07:59;21.60;83.90
16744;DHT22;71724;-33.900;151.182;2023-11-21T00:10:26;21.60;84.00
16744;DHT22;71724;-33.900;151.182;2023-11-21T00:12:55;21.60;83.90
16744;DHT22;71724;-33.900;151.182;2023-11-21T00:15:22;21.60;83.90
16744;DHT22;71724;-33.900;151.182;2023-11-21T00:17:49;21.60;83.60
16744;DHT22;71724;-33.900;151.182;2023-11-21T00:20:17;21.60;83.90
16744;DHT22;71724;-33.900;151.182;2023-11-21T00:22:44;21.70;83.60
16744;DHT22;71724;-33.900;151.182;2023-11-21T00:25:12;21.70;83.60
16744;DHT22;71724;-33.900;151.182;2023-11-21T00:27:42;21.80;83.80
16744;DHT22;71724;-33.900;151.182;2023-11-21T00:30:10;21.80;83.40
16744;DHT22;71724;-33.900;151.182;2023-11-21T00:32:39;21.80;83.40
16744;DHT22;71724;-33.900;151.182;2023-11-21T00:35:08;21.90;83.30
16744;DHT22;71724;-33.900;151.182;2023-11-21T00:37:35;21.90;83.30
16744;DHT22;71724;-33.900;151.182;2023-11-21T00:40:03;21.90;83.30
16744;DHT22;71724;-33.900;151.182;2023-11-21T00:42:34;22.00;83.50
16744;DHT22;71724;-33.900;151.182;2023-11-21T00:45:01;22.10;83.40
16744;DHT22;71724;-33.900;151.182;2023-11-21T00:47:30;22.20;82.60
16744;DHT22;71724;-33.900;151.182;2023-11-21T00:49:57;22.20;82.40
16744;DHT22;71724;-33.900;151.182;2023-11-21T00:52:25;22.30;82.20
16744;DHT22;71724;-33.900;151.182;2023-11-21T00:54:52;22.30;82.60
16744;DHT22;71724;-33.900;151.182;2023-11-21T00:57:20;22.50;82.40
16744;DHT22;71724;-33.900;151.182;2023-11-21T00:59:47;22.60;82.50
16744;DHT22;71724;-33.900;151.182;2023-11-21T01:02:14;22.60;82.00
16744;DHT22;71724;-33.900;151.182;2023-11-21T01:04:42;22.40;81.60
16744;DHT22;71724;-33.900;151.182;2023-11-21T01:07:10;22.30;81.80
16744;DHT22;71724;-33.900;151.182;2023-11-21T01:09:37;22.30;82.20
16744;DHT22;71724;-33.900;151.182;2023-11-21T01:12:05;22.30;81.80
16744;DHT22;71724;-33.900;151.182;2023-11-21T01:14:33;22.30;82.20
16744;DHT22;71724;-33.900;151.182;2023-11-21T01:17:00;22.40;82.10
16744;DHT22;71724;-33.900;151.182;2023-11-21T01:19:28;22.40;81.40
16744;DHT22;71724;-33.900;151.182;2023-11-21T01:21:55;22.30;81.30
16744;DHT22;71724;-33.900;151.182;2023-11-21T01:24:24;22.40;81.60
16744;DHT22;71724;-33.900;151.182;2023-11-21T01:26:51;22.50;81.30
16744;DHT22;71724;-33.900;151.182;2023-11-21T01:29:19;22.60;81.40
16744;DHT22;71724;-33.900;151.182;2023-11-21T01:31:46;22.80;81.20
16744;DHT22;71724;-33.900;151.182;2023-11-21T01:34:14;22.80;81.00
16744;DHT22;71724;-33.900;151.182;2023-11-21T01:36:41;23.00;80.80
16744;DHT22;71724;-33.900;151.182;2023-11-21T01:39:10;23.00;79.80
16744;DHT22;71724;-33.900;151.182;2023-11-21T01:41:42;23.00;79.90
16744;DHT22;71724;-33.900;151.182;2023-11-21T01:44:12;23.10;79.30
16744;DHT22;71724;-33.900;151.182;2023-11-21T01:46:41;23.10;78.60
16744;DHT22;71724;-33.900;151.182;2023-11-21T01:49:09;23.10;78.40
16744;DHT22;71724;-33.900;151.182;2023-11-21T01:51:41;23.20;78.70
16744;DHT22;71724;-33.900;151.182;2023-11-21T01:54:11;23.20;78.80
16744;DHT22;71724;-33.900;151.182;2023-11-21T01:56:38;23.20;78.40
16744;DHT22;71724;-33.900;151.182;2023-11-21T01:59:06;23.30;78.30
16744;DHT22;71724;-33.900;151.182;2023-11-21T02:01:34;23.30;78.00
16744;DHT22;71724;-33.900;151.182;2023-11-21T02:04:02;23.30;78.40
16744;DHT22;71724;-33.900;151.182;2023-11-21T02:06:30;23.30;77.90
16744;DHT22;71724;-33.900;151.182;2023-11-21T02:08:57;23.40;77.70
16744;DHT22;71724;-33.900;151.182;2023-11-21T02:11:26;23.40;77.70
16744;DHT22;71724;-33.900;151.182;2023-11-21T02:13:54;23.50;77.80
16744;DHT22;71724;-33.900;151.182;2023-11-21T02:16:21;23.50;77.70
16744;DHT22;71724;-33.900;151.182;2023-11-21T02:18:49;23.60;77.00
16744;DHT22;71724;-33.900;151.182;2023-11-21T02:21:18;23.70;76.90
16744;DHT22;71724;-33.900;151.182;2023-11-21T02:23:46;23.80;76.80
16744;DHT22;71724;-33.900;151.182;2023-11-21T02:26:13;23.80;76.20
16744;DHT22;71724;-33.900;151.182;2023-11-21T02:28:41;24.00;76.10
16744;DHT22;71724;-33.900;151.182;2023-11-21T02:31:09;24.00;75.80
16744;DHT22;71724;-33.900;151.182;2023-11-21T02:33:36;24.00;75.50
16744;DHT22;71724;-33.900;151.182;2023-11-21T02:36:04;23.90;75.50
16744;DHT22;71724;-33.900;151.182;2023-11-21T02:38:32;23.70;75.30
16744;DHT22;71724;-33.900;151.182;2023-11-21T02:40:59;23.60;75.60
16744;DHT22;71724;-33.900;151.182;2023-11-21T02:43:26;23.50;76.00
16744;DHT22;71724;-33.900;151.182;2023-11-21T02:45:54;23.50;76.30
16744;DHT22;71724;-33.900;151.182;2023-11-21T02:48:21;23.50;76.60
16744;DHT22;71724;-33.900;151.182;2023-11-21T02:50:50;23.60;76.70
16744;DHT22;71724;-33.900;151.182;2023-11-21T02:53:19;23.60;76.30
16744;DHT22;71724;-33.900;151.182;2023-11-21T02:55:47;23.70;75.60
16744;DHT22;71724;-33.900;151.182;2023-11-21T02:58:14;23.80;75.70
16744;DHT22;71724;-33.900;151.182;2023-11-21T03:00:41;24.00;75.10
16744;DHT22;71724;-33.900;151.182;2023-11-21T03:03:09;24.00;74.40
16744;DHT22;71724;-33.900;151.182;2023-11-21T03:05:36;24.00;74.30
16744;DHT22;71724;-33.900;151.182;2023-11-21T03:08:05;24.10;74.20
16744;DHT22;71724;-33.900;151.182;2023-11-21T03:10:32;24.00;72.70
16744;DHT22;71724;-33.900;151.182;2023-11-21T03:12:59;23.90;72.60
16744;DHT22;71724;-33.900;151.182;2023-11-21T03:15:27;24.00;72.50
16744;DHT22;71724;-33.900;151.182;2023-11-21T03:17:54;24.00;72.60
16744;DHT22;71724;-33.900;151.182;2023-11-21T03:20:21;24.00;72.10
16744;DHT22;71724;-33.900;151.182;2023-11-21T03:22:49;24.00;71.90
16744;DHT22;71724;-33.900;151.182;2023-11-21T03:25:16;24.00;72.40
16744;DHT22;71724;-33.900;151.182;2023-11-21T03:27:44;24.10;72.30
16744;DHT22;71724;-33.900;151.182;2023-11-21T03:30:11;24.20;72.00
16744;DHT22;71724;-33.900;151.182;2023-11-21T03:32:39;24.20;72.30
16744;DHT22;71724;-33.900;151.182;2023-11-21T03:35:09;24.30;71.40
16744;DHT22;71724;-33.900;151.182;2023-11-21T03:37:37;24.20;71.70
16744;DHT22;71724;-33.900;151.182;2023-11-21T03:40:08;24.20;71.40
16744;DHT22;71724;-33.900;151.182;2023-11-21T03:42:36;24.20;71.30
16744;DHT22;71724;-33.900;151.182;2023-11-21T03:45:04;24.20;71.30
16744;DHT22;71724;-33.900;151.182;2023-11-21T03:47:31;24.20;71.70
16744;DHT22;71724;-33.900;151.182;2023-11-21T03:49:59;24.20;71.90
16744;DHT22;71724;-33.900;151.182;2023-11-21T03:52:26;24.20;71.50
16744;DHT22;71724;-33.900;151.182;2023-11-21T03:54:55;24.20;71.50
16744;DHT22;71724;-33.900;151.182;2023-11-21T03:57:22;24.20;72.00
16744;DHT22;71724;-33.900;151.182;2023-11-21T03:59:49;24.30;71.40
16744;DHT22;71724;-33.900;151.182;2023-11-21T04:02:17;24.30;71.40
16744;DHT22;71724;-33.900;151.182;2023-11-21T04:04:45;24.30;71.40
16744;DHT22;71724;-33.900;151.182;2023-11-21T04:07:13;24.50;71.80
16744;DHT22;71724;-33.900;151.182;2023-11-21T04:09:41;24.60;70.80
16744;DHT22;71724;-33.900;151.182;2023-11-21T04:12:08;24.70;70.50
16744;DHT22;71724;-33.900;151.182;2023-11-21T04:14:36;24.80;69.90
16744;DHT22;71724;-33.900;151.182;2023-11-21T04:17:03;24.90;70.30
16744;DHT22;71724;-33.900;151.182;2023-11-21T04:19:31;25.00;69.90
16744;DHT22;71724;-33.900;151.182;2023-11-21T04:21:58;25.00;69.30
16744;DHT22;71724;-33.900;151.182;2023-11-21T04:24:26;25.00;68.70
16744;DHT22;71724;-33.900;151.182;2023-11-21T04:26:54;25.00;68.70
16744;DHT22;71724;-33.900;151.182;2023-11-21T04:29:22;25.00;68.40
16744;DHT22;71724;-33.900;151.182;2023-11-21T04:31:50;25.10;68.30
16744;DHT22;71724;-33.900;151.182;2023-11-21T04:34:17;25.20;68.30
16744;DHT22;71724;-33.900;151.182;2023-11-21T04:36:45;25.20;66.40
16744;DHT22;71724;-33.900;151.182;2023-11-21T04:39:12;25.10;66.00
16744;DHT22;71724;-33.900;151.182;2023-11-21T04:41:40;25.10;66.00
16744;DHT22;71724;-33.900;151.182;2023-11-21T04:44:07;25.00;66.20
16744;DHT22;71724;-33.900;151.182;2023-11-21T04:46:35;25.00;65.80
16744;DHT22;71724;-33.900;151.182;2023-11-21T04:49:02;25.10;65.90
16744;DHT22;71724;-33.900;151.182;2023-11-21T04:51:29;25.00;66.40
16744;DHT22;71724;-33.900;151.182;2023-11-21T04:53:58;25.00;66.90
16744;DHT22;71724;-33.900;151.182;2023-11-21T04:56:26;24.90;67.40
16744;DHT22;71724;-33.900;151.182;2023-11-21T04:58:54;25.00;67.50
16744;DHT22;71724;-33.900;151.182;2023-11-21T05:01:21;25.00;67.70
16744;DHT22;71724;-33.900;151.182;2023-11-21T05:03:49;25.00;67.90
16744;DHT22;71724;-33.900;151.182;2023-11-21T05:06:16;25.10;67.80
16744;DHT22;71724;-33.900;151.182;2023-11-21T05:08:44;25.10;67.20
16744;DHT22;71724;-33.900;151.182;2023-11-21T05:11:11;25.00;67.50
16744;DHT22;71724;-33.900;151.182;2023-11-21T05:13:38;25.10;67.20
16744;DHT22;71724;-33.900;151.182;2023-11-21T05:16:06;25.10;66.80
16744;DHT22;71724;-33.900;151.182;2023-11-21T05:18:33;25.20;66.60
16744;DHT22;71724;-33.900;151.182;2023-11-21T05:21:01;25.20;66.00
16744;DHT22;71724;-33.900;151.182;2023-11-21T05:23:29;25.30;66.30
16744;DHT22;71724;-33.900;151.182;2023-11-21T05:25:56;25.20;66.40
16744;DHT22;71724;-33.900;151.182;2023-11-21T05:28:23;25.20;66.40
16744;DHT22;71724;-33.900;151.182;2023-11-21T05:30:51;25.30;66.40
16744;DHT22;71724;-33.900;151.182;2023-11-21T05:33:19;25.30;66.10
16744;DHT22;71724;-33.900;151.182;2023-11-21T05:35:47;25.30;65.50
16744;DHT22;71724;-33.900;151.182;2023-11-21T05:38:17;25.30;65.90
16744;DHT22;71724;-33.900;151.182;2023-11-21T05:40:44;25.30;65.90
16744;DHT22;71724;-33.900;151.182;2023-11-21T05:43:12;25.30;65.90
16744;DHT22;71724;-33.900;151.182;2023-11-21T05:45:39;25.20;66.00
16744;DHT22;71724;-33.900;151.182;2023-11-21T05:48:07;25.10;66.10
16744;DHT22;71724;-33.900;151.182;2023-11-21T05:50:34;25.00;66.50
16744;DHT22;71724;-33.900;151.182;2023-11-21T05:53:02;24.90;66.90
16744;DHT22;71724;-33.900;151.182;2023-11-21T05:55:29;24.80;67.10
16744;DHT22;71724;-33.900;151.182;2023-11-21T05:57:56;24.70;67.40
16744;DHT22;71724;-33.900;151.182;2023-11-21T06:00:24;24.70;67.60
16744;DHT22;71724;-33.900;151.182;2023-11-21T06:02:54;24.60;67.90
16744;DHT22;71724;-33.900;151.182;2023-11-21T06:05:23;24.50;68.10
16744;DHT22;71724;-33.900;151.182;2023-11-21T06:08:11;24.50;68.30
16744;DHT22;71724;-33.900;151.182;2023-11-21T06:10:38;24.40;68.50
16744;DHT22;71724;-33.900;151.182;2023-11-21T06:13:07;24.30;68.80
16744;DHT22;71724;-33.900;151.182;2023-11-21T06:15:35;24.30;69.00
16744;DHT22;71724;-33.900;151.182;2023-11-21T06:18:03;24.20;69.10
16744;DHT22;71724;-33.900;151.182;2023-11-21T06:20:32;24.20;69.10
16744;DHT22;71724;-33.900;151.182;2023-11-21T06:23:02;24.20;69.40
16744;DHT22;71724;-33.900;151.182;2023-11-21T06:25:30;24.20;69.60
16744;DHT22;71724;-33.900;151.182;2023-11-21T06:28:07;24.20;69.60
16744;DHT22;71724;-33.900;151.182;2023-11-21T06:30:40;24.20;69.40
16744;DHT22;71724;-33.900;151.182;2023-11-21T06:33:25;24.20;69.50
16744;DHT22;71724;-33.900;151.182;2023-11-21T06:35:58;24.20;69.50
16744;DHT22;71724;-33.900;151.182;2023-11-21T06:38:31;24.30;69.60
16744;DHT22;71724;-33.900;151.182;2023-11-21T06:40:59;24.30;69.60
16744;DHT22;71724;-33.900;151.182;2023-11-21T06:43:31;24.20;69.80
16744;DHT22;71724;-33.900;151.182;2023-11-21T06:45:58;24.10;69.80
16744;DHT22;71724;-33.900;151.182;2023-11-21T06:48:26;24.00;69.80
16744;DHT22;71724;-33.900;151.182;2023-11-21T06:50:54;23.90;70.00
16744;DHT22;71724;-33.900;151.182;2023-11-21T06:53:21;23.90;70.40
16744;DHT22;71724;-33.900;151.182;2023-11-21T06:55:49;23.90;70.30
16744;DHT22;71724;-33.900;151.182;2023-11-21T06:58:17;23.90;70.50
16744;DHT22;71724;-33.900;151.182;2023-11-21T07:00:44;23.90;70.50
16744;DHT22;71724;-33.900;151.182;2023-11-21T07:03:15;23.90;70.50
16744;DHT22;71724;-33.900;151.182;2023-11-21T07:05:46;23.80;70.60
16744;DHT22;71724;-33.900;151.182;2023-11-21T07:08:13;23.80;70.60
16744;DHT22;71724;-33.900;151.182;2023-11-21T07:10:41;23.70;70.70
16744;DHT22;71724;-33.900;151.182;2023-11-21T07:13:10;23.60;71.10
16744;DHT22;71724;-33.900;151.182;2023-11-21T07:15:40;23.50;71.50
16744;DHT22;71724;-33.900;151.182;2023-11-21T07:18:08;23.40;71.80
16744;DHT22;71724;-33.900;151.182;2023-11-21T07:20:36;23.30;72.00
16744;DHT22;71724;-33.900;151.182;2023-11-21T07:23:05;23.30;72.20
16744;DHT22;71724;-33.900;151.182;2023-11-21T07:25:33;23.30;72.60
16744;DHT22;71724;-33.900;151.182;2023-11-21T07:28:03;23.30;72.70
16744;DHT22;71724;-33.900;151.182;2023-11-21T07:30:35;23.30;72.60
16744;DHT22;71724;-33.900;151.182;2023-11-21T07:33:04;23.40;72.60
16744;DHT22;71724;-33.900;151.182;2023-11-21T07:35:36;23.50;72.80
16744;DHT22;71724;-33.900;151.182;2023-11-21T07:38:12;23.40;72.50
16744;DHT22;71724;-33.900;151.182;2023-11-21T07:40:43;23.30;72.50
16744;DHT22;71724;-33.900;151.182;2023-11-21T07:43:12;23.30;72.60
16744;DHT22;71724;-33.900;151.182;2023-11-21T07:45:40;23.30;72.60
16744;DHT22;71724;-33.900;151.182;2023-11-21T07:48:09;23.20;72.70
16744;DHT22;71724;-33.900;151.182;2023-11-21T07:50:37;23.10;72.90
16744;DHT22;71724;-33.900;151.182;2023-11-21T07:53:06;23.10;73.10
16744;DHT22;71724;-33.900;151.182;2023-11-21T07:55:36;23.00;73.20
16744;DHT22;71724;-33.900;151.182;2023-11-21T07:58:03;23.00;73.40
16744;DHT22;71724;-33.900;151.182;2023-11-21T08:00:31;23.00;73.70
16744;DHT22;71724;-33.900;151.182;2023-11-21T08:02:59;22.90;73.90
16744;DHT22;71724;-33.900;151.182;2023-11-21T08:05:27;22.80;73.90
16744;DHT22;71724;-33.900;151.182;2023-11-21T08:07:54;22.80;73.90
16744;DHT22;71724;-33.900;151.182;2023-11-21T08:10:22;22.80;74.20
16744;DHT22;71724;-33.900;151.182;2023-11-21T08:12:50;22.80;74.20
16744;DHT22;71724;-33.900;151.182;2023-11-21T08:15:17;22.80;74.40
16744;DHT22;71724;-33.900;151.182;2023-11-21T08:17:46;22.70;74.50
16744;DHT22;71724;-33.900;151.182;2023-11-21T08:20:13;22.60;74.70
16744;DHT22;71724;-33.900;151.182;2023-11-21T08:22:46;22.60;74.80
16744;DHT22;71724;-33.900;151.182;2023-11-21T08:25:14;22.70;74.90
16744;DHT22;71724;-33.900;151.182;2023-11-21T08:27:41;22.60;75.00
16744;DHT22;71724;-33.900;151.182;2023-11-21T08:30:09;22.60;75.00
16744;DHT22;71724;-33.900;151.182;2023-11-21T08:32:37;22.50;75.10
16744;DHT22;71724;-33.900;151.182;2023-11-21T08:35:04;22.50;75.20
16744;DHT22;71724;-33.900;151.182;2023-11-21T08:37:32;22.40;75.30
16744;DHT22;71724;-33.900;151.182;2023-11-21T08:40:05;22.40;75.50
16744;DHT22;71724;-33.900;151.182;2023-11-21T08:42:36;22.40;75.50
16744;DHT22;71724;-33.900;151.182;2023-11-21T08:45:04;22.40;75.50
16744;DHT22;71724;-33.900;151.182;2023-11-21T08:47:32;22.40;75.60
16744;DHT22;71724;-33.900;151.182;2023-11-21T08:50:01;22.40;75.80
16744;DHT22;71724;-33.900;151.182;2023-11-21T08:52:29;22.40;75.80
16744;DHT22;71724;-33.900;151.182;2023-11-21T08:54:56;22.40;76.00
16744;DHT22;71724;-33.900;151.182;2023-11-21T08:57:25;22.40;76.00
16744;DHT22;71724;-33.900;151.182;2023-11-21T08:59:53;22.40;76.20
16744;DHT22;71724;-33.900;151.182;2023-11-21T09:02:22;22.40;76.20
16744;DHT22;71724;-33.900;151.182;2023-11-21T09:04:50;22.40;76.50
16744;DHT22;71724;-33.900;151.182;2023-11-21T09:07:22;22.40;76.60
16744;DHT22;71724;-33.900;151.182;2023-11-21T09:09:50;22.40;76.70
16744;DHT22;71724;-33.900;151.182;2023-11-21T09:12:18;22.40;76.90
16744;DHT22;71724;-33.900;151.182;2023-11-21T09:14:45;22.40;76.70
16744;DHT22;71724;-33.900;151.182;2023-11-21T09:17:13;22.40;76.70
16744;DHT22;71724;-33.900;151.182;2023-11-21T09:19:41;22.30;76.80
16744;DHT22;71724;-33.900;151.182;2023-11-21T09:22:10;22.40;76.90
16744;DHT22;71724;-33.900;151.182;2023-11-21T09:24:37;22.30;76.90
16744;DHT22;71724;-33.900;151.182;2023-11-21T09:27:04;22.40;76.90
16744;DHT22;71724;-33.900;151.182;2023-11-21T09:29:32;22.30;77.10
16744;DHT22;71724;-33.900;151.182;2023-11-21T09:31:59;22.30;77.00
16744;DHT22;71724;-33.900;151.182;2023-11-21T09:34:27;22.30;77.00
16744;DHT22;71724;-33.900;151.182;2023-11-21T09:36:55;22.30;77.00
16744;DHT22;71724;-33.900;151.182;2023-11-21T09:39:22;22.30;77.00
16744;DHT22;71724;-33.900;151.182;2023-11-21T09:41:52;22.30;77.00
16744;DHT22;71724;-33.900;151.182;2023-11-21T09:45:15;22.20;77.00
16744;DHT22;71724;-33.900;151.182;2023-11-21T09:47:23;22.20;77.00
16744;DHT22;71724;-33.900;151.182;2023-11-21T09:49:50;22.20;77.10
16744;DHT22;71724;-33.900;151.182;2023-11-21T09:52:30;22.20;77.00
16744;DHT22;71724;-33.900;151.182;2023-11-21T09:54:59;22.20;77.00
16744;DHT22;71724;-33.900;151.182;2023-11-21T09:57:27;22.20;77.10
16744;DHT22;71724;-33.900;151.182;2023-11-21T09:59:55;22.20;77.10
16744;DHT22;71724;-33.900;151.182;2023-11-21T10:02:32;22.20;77.10
16744;DHT22;71724;-33.900;151.182;2023-11-21T10:05:03;22.10;77.10
16744;DHT22;71724;-33.900;151.182;2023-11-21T10:07:32;22.10;77.20
16744;DHT22;71724;-33.900;151.182;2023-11-21T10:10:02;22.00;77.30
16744;DHT22;71724;-33.900;151.182;2023-11-21T10:12:30;22.00;77.40
16744;DHT22;71724;-33.900;151.182;2023-11-21T10:15:00;22.00;77.60
16744;DHT22;71724;-33.900;151.182;2023-11-21T10:17:32;21.90;77.70
16744;DHT22;71724;-33.900;151.182;2023-11-21T10:20:11;21.90;77.70
16744;DHT22;71724;-33.900;151.182;2023-11-21T10:22:43;21.90;77.70
16744;DHT22;71724;-33.900;151.182;2023-11-21T10:25:11;21.90;77.70
16744;DHT22;71724;-33.900;151.182;2023-11-21T10:27:41;21.90;77.70
16744;DHT22;71724;-33.900;151.182;2023-11-21T10:30:10;21.90;77.70
16744;DHT22;71724;-33.900;151.182;2023-11-21T10:32:43;21.90;77.80
16744;DHT22;71724;-33.900;151.182;2023-11-21T10:35:11;21.90;77.80
16744;DHT22;71724;-33.900;151.182;2023-11-21T10:37:42;21.90;77.70
16744;DHT22;71724;-33.900;151.182;2023-11-21T10:40:12;21.90;77.80
16744;DHT22;71724;-33.900;151.182;2023-11-21T10:42:43;21.90;77.80
16744;DHT22;71724;-33.900;151.182;2023-11-21T10:45:10;21.90;77.80
16744;DHT22;71724;-33.900;151.182;2023-11-21T10:47:42;21.90;77.90
16744;DHT22;71724;-33.900;151.182;2023-11-21T10:50:09;21.90;78.00
16744;DHT22;71724;-33.900;151.182;2023-11-21T10:52:41;21.90;78.10
16744;DHT22;71724;-33.900;151.182;2023-11-21T10:55:20;21.90;78.10
16744;DHT22;71724;-33.900;151.182;2023-11-21T10:57:55;21.90;78.00
16744;DHT22;71724;-33.900;151.182;2023-11-21T11:00:26;21.80;78.00
16744;DHT22;71724;-33.900;151.182;2023-11-21T11:02:54;21.80;78.00
16744;DHT22;71724;-33.900;151.182;2023-11-21T11:05:27;21.80;78.00
16744;DHT22;71724;-33.900;151.182;2023-11-21T11:08:07;21.80;78.20
16744;DHT22;71724;-33.900;151.182;2023-11-21T11:10:35;21.70;78.40
16744;DHT22;71724;-33.900;151.182;2023-11-21T11:13:03;21.60;78.50
16744;DHT22;71724;-33.900;151.182;2023-11-21T11:15:31;21.60;78.70
16744;DHT22;71724;-33.900;151.182;2023-11-21T11:18:00;21.50;78.80
16744;DHT22;71724;-33.900;151.182;2023-11-21T11:20:34;21.50;78.90
16744;DHT22;71724;-33.900;151.182;2023-11-21T11:31:29;21.30;79.40
16744;DHT22;71724;-33.900;151.182;2023-11-21T11:36:55;21.30;79.30
16744;DHT22;71724;-33.900;151.182;2023-11-21T11:42:05;21.30;79.30
16744;DHT22;71724;-33.900;151.182;2023-11-21T11:47:29;21.30;79.20
16744;DHT22;71724;-33.900;151.182;2023-11-21T11:50:11;21.30;79.30
16744;DHT22;71724;-33.900;151.182;2023-11-21T11:52:57;21.30;79.40
16744;DHT22;71724;-33.900;151.182;2023-11-21T11:55:38;21.30;79.60
16744;DHT22;71724;-33.900;151.182;2023-11-21T11:58:09;21.30;79.50
16744;DHT22;71724;-33.900;151.182;2023-11-21T12:00:37;21.30;79.40
16744;DHT22;71724;-33.900;151.182;2023-11-21T12:03:08;21.20;79.40
16744;DHT22;71724;-33.900;151.182;2023-11-21T12:05:36;21.20;79.50
16744;DHT22;71724;-33.900;151.182;2023-11-21T12:08:08;21.20;79.50
16744;DHT22;71724;-33.900;151.182;2023-11-21T12:10:39;21.20;79.50
16744;DHT22;71724;-33.900;151.182;2023-11-21T12:13:09;21.20;79.50
16744;DHT22;71724;-33.900;151.182;2023-11-21T12:15:38;21.20;79.50
16744;DHT22;71724;-33.900;151.182;2023-11-21T12:18:08;21.20;79.40
16744;DHT22;71724;-33.900;151.182;2023-11-21T12:20:35;21.30;79.40
16744;DHT22;71724;-33.900;151.182;2023-11-21T12:23:06;21.30;79.40
16744;DHT22;71724;-33.900;151.182;2023-11-21T12:25:35;21.30;79.20
16744;DHT22;71724;-33.900;151.182;2023-11-21T12:28:03;21.30;79.10
16744;DHT22;71724;-33.900;151.182;2023-11-21T12:30:35;21.30;79.10
16744;DHT22;71724;-33.900;151.182;2023-11-21T12:33:04;21.30;79.10
16744;DHT22;71724;-33.900;151.182;2023-11-21T12:35:36;21.20;79.20
16744;DHT22;71724;-33.900;151.182;2023-11-21T12:38:04;21.30;79.30
16744;DHT22;71724;-33.900;151.182;2023-11-21T12:40:32;21.30;78.90
16744;DHT22;71724;-33.900;151.182;2023-11-21T12:43:00;21.30;78.70
16744;DHT22;71724;-33.900;151.182;2023-11-21T12:45:34;21.30;78.60
16744;DHT22;71724;-33.900;151.182;2023-11-21T12:48:05;21.30;78.60
16744;DHT22;71724;-33.900;151.182;2023-11-21T12:50:38;21.30;78.70
16744;DHT22;71724;-33.900;151.182;2023-11-21T12:53:10;21.30;78.60
16744;DHT22;71724;-33.900;151.182;2023-11-21T12:55:44;21.30;78.50
16744;DHT22;71724;-33.900;151.182;2023-11-21T12:58:16;21.30;78.40
16744;DHT22;71724;-33.900;151.182;2023-11-21T13:00:48;21.30;78.30
16744;DHT22;71724;-33.900;151.182;2023-11-21T13:03:16;21.30;78.10
16744;DHT22;71724;-33.900;151.182;2023-11-21T13:05:50;21.20;78.10
16744;DHT22;71724;-33.900;151.182;2023-11-21T13:08:21;21.20;78.30
16744;DHT22;71724;-33.900;151.182;2023-11-21T13:10:56;21.20;78.30
16744;DHT22;71724;-33.900;151.182;2023-11-21T13:13:24;21.20;78.30
16744;DHT22;71724;-33.900;151.182;2023-11-21T13:15:54;21.20;78.20
16744;DHT22;71724;-33.900;151.182;2023-11-21T13:18:28;21.20;78.10
16744;DHT22;71724;-33.900;151.182;2023-11-21T13:20:57;21.20;78.20
16744;DHT22;71724;-33.900;151.182;2023-11-21T13:23:25;21.20;78.10
16744;DHT22;71724;-33.900;151.182;2023-11-21T13:25:53;21.20;78.00
16744;DHT22;71724;-33.900;151.182;2023-11-21T13:28:21;21.10;78.10
16744;DHT22;71724;-33.900;151.182;2023-11-21T13:30:53;21.20;78.20
16744;DHT22;71724;-33.900;151.182;2023-11-21T13:33:22;21.20;78.20
16744;DHT22;71724;-33.900;151.182;2023-11-21T13:35:54;21.20;78.20
16744;DHT22;71724;-33.900;151.182;2023-11-21T13:38:23;21.20;78.10
16744;DHT22;71724;-33.900;151.182;2023-11-21T13:40:53;21.20;78.00
16744;DHT22;71724;-33.900;151.182;2023-11-21T13:43:24;21.20;78.00
16744;DHT22;71724;-33.900;151.182;2023-11-21T13:45:55;21.20;77.90
16744;DHT22;71724;-33.900;151.182;2023-11-21T13:48:29;21.20;78.00
16744;DHT22;71724;-33.900;151.182;2023-11-21T13:51:07;21.30;78.00
16744;DHT22;71724;-33.900;151.182;2023-11-21T13:53:47;21.20;77.60
16744;DHT22;71724;-33.900;151.182;2023-11-21T13:56:17;21.30;77.50
16744;DHT22;71724;-33.900;151.182;2023-11-21T13:58:50;21.20;77.40
16744;DHT22;71724;-33.900;151.182;2023-11-21T14:01:19;21.20;77.30
16744;DHT22;71724;-33.900;151.182;2023-11-21T14:03:56;21.10;77.40
16744;DHT22;71724;-33.900;151.182;2023-11-21T14:06:29;21.10;77.40
16744;DHT22;71724;-33.900;151.182;2023-11-21T14:09:06;21.10;77.40
16744;DHT22;71724;-33.900;151.182;2023-11-21T14:11:34;21.10;77.50
16744;DHT22;71724;-33.900;151.182;2023-11-21T14:14:04;21.10;77.40
16744;DHT22;71724;-33.900;151.182;2023-11-21T14:16:32;21.10;77.50
16744;DHT22;71724;-33.900;151.182;2023-11-21T14:18:59;21.10;77.50
16744;DHT22;71724;-33.900;151.182;2023-11-21T14:21:28;21.10;77.50
16744;DHT22;71724;-33.900;151.182;2023-11-21T14:23:55;21.00;77.60
16744;DHT22;71724;-33.900;151.182;2023-11-21T14:26:23;21.10;77.60
16744;DHT22;71724;-33.900;151.182;2023-11-21T14:28:51;21.00;77.60
16744;DHT22;71724;-33.900;151.182;2023-11-21T14:31:20;21.00;77.60
16744;DHT22;71724;-33.900;151.182;2023-11-21T14:33:47;21.00;77.70
16744;DHT22;71724;-33.900;151.182;2023-11-21T14:36:14;21.00;77.70
16744;DHT22;71724;-33.900;151.182;2023-11-21T14:38:43;21.00;77.70
16744;DHT22;71724;-33.900;151.182;2023-11-21T14:41:11;21.00;77.70
16744;DHT22;71724;-33.900;151.182;2023-11-21T14:43:44;21.00;77.60
16744;DHT22;71724;-33.900;151.182;2023-11-21T14:46:16;21.00;77.70
16744;DHT22;71724;-33.900;151.182;2023-11-21T14:48:46;21.00;77.60
16744;DHT22;71724;-33.900;151.182;2023-11-21T14:51:35;21.00;77.70
16744;DHT22;71724;-33.900;151.182;2023-11-21T14:54:22;21.00;77.70
16744;DHT22;71724;-33.900;151.182;2023-11-21T14:57:09;21.00;77.70
16744;DHT22;71724;-33.900;151.182;2023-11-21T14:59:46;21.00;77.60
16744;DHT22;71724;-33.900;151.182;2023-11-21T15:02:17;21.00;77.60
16744;DHT22;71724;-33.900;151.182;2023-11-21T15:05:07;20.90;77.70
16744;DHT22;71724;-33.900;151.182;2023-11-21T15:07:41;20.90;77.70
16744;DHT22;71724;-33.900;151.182;2023-11-21T15:10:10;21.00;77.60
16744;DHT22;71724;-33.900;151.182;2023-11-21T15:12:41;20.90;77.70
16744;DHT22;71724;-33.900;151.182;2023-11-21T15:15:11;20.90;77.60
16744;DHT22;71724;-33.900;151.182;2023-11-21T15:17:40;20.80;77.70